createdAt,value
2024-02-13T00:00:38.463Z,149760.95
2024-02-13T00:01:42.312Z,149772.44
2024-02-13T00:02:44.373Z,149783.91
2024-02-13T00:03:46.479Z,149790.27
2024-02-13T00:04:48.560Z,149780.09
2024-02-13T00:05:52.328Z,149774.95
2024-02-13T00:06:57.395Z,149771.12
2024-02-13T00:07:59.847Z,149762.20
2024-02-13T00:09:03.031Z,149757.12
2024-02-13T00:10:08.098Z,149752.03
2024-02-13T00:11:11.938Z,149769.86
2024-02-13T00:12:14.014Z,149787.75
2024-02-13T00:13:15.923Z,149783.91
2024-02-13T00:14:17.824Z,149780.09
2024-02-13T00:15:20.310Z,149772.44
2024-02-13T00:16:22.787Z,149739.25
2024-02-13T00:17:24.846Z,149732.91
2024-02-13T00:18:27.489Z,149740.56
2024-02-13T00:19:29.725Z,149744.38
2024-02-13T00:20:33.514Z,149734.16
2024-02-13T00:21:35.592Z,149762.20
2024-02-13T00:22:38.733Z,149762.20
2024-02-13T00:23:40.784Z,149760.95
2024-02-13T00:24:42.879Z,149757.12
2024-02-13T00:25:47.210Z,149774.95
2024-02-13T00:26:49.478Z,149762.20
2024-02-13T00:27:51.566Z,149774.95
2024-02-13T00:28:53.472Z,149762.20
2024-02-13T00:29:56.729Z,149754.56
2024-02-13T00:30:58.834Z,149762.20
2024-02-13T00:32:00.752Z,149763.47
2024-02-13T00:33:07.080Z,149774.95
2024-02-13T00:34:11.318Z,149750.72
2024-02-13T00:35:14.866Z,149769.86
2024-02-13T00:36:17.274Z,149780.09
2024-02-13T00:37:19.191Z,149780.09
2024-02-13T00:38:21.225Z,149774.95
2024-02-13T00:39:23.236Z,149794.09
2024-02-13T00:40:25.324Z,149790.27
2024-02-13T00:41:27.685Z,149783.91
2024-02-13T00:42:30.424Z,149773.69
2024-02-13T00:43:33.642Z,149777.52
2024-02-13T00:44:36.896Z,149805.56
2024-02-13T00:45:39.417Z,149799.17
2024-02-13T00:46:41.397Z,149781.34
2024-02-13T00:47:43.600Z,149805.56
2024-02-13T00:48:46.481Z,149790.27
2024-02-13T00:49:48.504Z,149763.47
2024-02-13T00:50:51.833Z,149771.12
2024-02-13T00:51:54.074Z,149790.27
2024-02-13T00:52:56.837Z,149792.83
2024-02-13T00:53:59.619Z,149787.75
2024-02-13T00:55:02.307Z,149780.09
2024-02-13T00:56:08.593Z,149771.12
2024-02-13T00:57:11.820Z,149752.03
2024-02-13T00:58:14.711Z,149773.69
2024-02-13T00:59:17.884Z,149782.59
2024-02-13T01:00:20.225Z,149799.17
2024-02-13T01:01:22.501Z,149771.12
2024-02-13T01:02:24.798Z,149780.09
2024-02-13T01:03:29.064Z,149782.59
2024-02-13T01:04:31.566Z,149774.95
2024-02-13T01:05:34.317Z,149752.03
2024-02-13T01:06:38.186Z,149757.12
2024-02-13T01:07:40.274Z,149758.38
2024-02-13T01:08:42.405Z,149778.78
2024-02-13T01:09:44.503Z,149780.09
2024-02-13T01:10:47.854Z,149780.09
2024-02-13T01:11:49.940Z,149759.64
2024-02-13T01:12:53.156Z,149763.47
2024-02-13T01:13:55.518Z,149771.12
2024-02-13T01:14:57.920Z,149792.83
2024-02-13T01:16:00.109Z,149786.44
2024-02-13T01:17:03.189Z,149786.44
2024-02-13T01:18:05.407Z,149772.44
2024-02-13T01:19:08.919Z,149782.59
2024-02-13T01:20:11.756Z,149769.86
2024-02-13T01:21:14.580Z,149777.52
2024-02-13T01:22:20.121Z,149764.78
2024-02-13T01:23:22.657Z,149762.20
2024-02-13T01:24:29.330Z,149752.03
2024-02-13T01:25:33.294Z,149748.20
2024-02-13T01:26:35.646Z,149754.56
2024-02-13T01:27:40.607Z,149752.03
2024-02-13T01:28:42.555Z,149767.30
2024-02-13T01:29:44.480Z,149789.00
2024-02-13T01:30:50.130Z,149762.20
2024-02-13T01:31:53.313Z,149744.38
2024-02-13T01:32:56.397Z,149729.08
2024-02-13T01:33:58.510Z,149723.89
2024-02-13T01:35:00.728Z,149714.98
2024-02-13T01:36:04.556Z,149718.81
2024-02-13T01:37:06.674Z,149693.33
2024-02-13T01:38:09.372Z,149706.06
2024-02-13T01:39:11.715Z,149700.98
2024-02-13T01:40:15.409Z,149695.84
2024-02-13T01:41:17.468Z,149700.98
2024-02-13T01:42:20.671Z,149700.98
2024-02-13T01:43:22.570Z,149706.06
2024-02-13T01:44:24.729Z,149708.63
2024-02-13T01:45:26.825Z,149718.81
2024-02-13T01:46:29.668Z,149680.59
2024-02-13T01:47:32.138Z,149690.75
2024-02-13T01:48:34.964Z,149693.33
2024-02-13T01:49:39.339Z,149695.84
2024-02-13T01:50:41.719Z,149685.67
2024-02-13T01:51:45.016Z,149692.02
2024-02-13T01:52:50.644Z,149695.84
2024-02-13T01:53:53.310Z,149702.25
2024-02-13T01:54:55.784Z,149720.11
2024-02-13T01:56:00.684Z,149703.50
2024-02-13T01:57:04.069Z,149721.38
2024-02-13T01:58:08.846Z,149716.28
2024-02-13T01:59:11.603Z,149695.84
2024-02-13T02:00:16.978Z,149690.75
2024-02-13T02:01:21.898Z,149669.11
2024-02-13T02:02:25.163Z,149660.16
2024-02-13T02:03:32.343Z,149657.63
2024-02-13T02:04:38.187Z,149658.89
2024-02-13T02:05:40.364Z,149647.42
2024-02-13T02:06:44.482Z,149651.25
2024-02-13T02:07:46.905Z,149625.77
2024-02-13T02:08:49.526Z,149625.77
2024-02-13T02:09:54.731Z,149619.38
2024-02-13T02:10:56.917Z,149638.50
2024-02-13T02:11:59.737Z,149646.16
2024-02-13T02:13:02.842Z,149642.33
2024-02-13T02:14:05.390Z,149642.33
2024-02-13T02:15:08.985Z,149637.25
2024-02-13T02:16:11.969Z,149610.47
2024-02-13T02:17:13.937Z,149609.20
2024-02-13T02:18:17.191Z,149602.81
2024-02-13T02:19:22.333Z,149609.20
2024-02-13T02:20:25.623Z,149611.72
2024-02-13T02:21:27.794Z,149605.38
2024-02-13T02:22:29.827Z,149606.64
2024-02-13T02:23:31.877Z,149615.55
2024-02-13T02:24:34.857Z,149609.20
2024-02-13T02:25:37.595Z,149625.77
2024-02-13T02:26:40.006Z,149614.28
2024-02-13T02:27:42.314Z,149599.00
2024-02-13T02:28:44.304Z,149614.28
2024-02-13T02:29:46.233Z,149601.56
2024-02-13T02:30:51.355Z,149611.72
2024-02-13T02:31:53.641Z,149611.72
2024-02-13T02:32:56.702Z,149613.03
2024-02-13T02:33:58.720Z,149624.52
2024-02-13T02:35:00.872Z,149618.12
2024-02-13T02:36:05.165Z,149613.03
2024-02-13T02:37:07.215Z,149611.72
2024-02-13T02:38:10.602Z,149599.00
2024-02-13T02:39:14.694Z,149599.00
2024-02-13T02:40:18.057Z,149600.25
2024-02-13T02:41:20.356Z,149591.34
2024-02-13T02:42:22.904Z,149574.78
2024-02-13T02:43:25.259Z,149573.53
2024-02-13T02:44:27.370Z,149579.88
2024-02-13T02:45:29.388Z,149583.69
2024-02-13T02:46:31.505Z,149577.34
2024-02-13T02:47:33.906Z,149567.13
2024-02-13T02:48:36.309Z,149554.39
2024-02-13T02:49:39.589Z,149558.22
2024-02-13T02:50:44.449Z,149555.66
2024-02-13T02:51:47.028Z,149553.14
2024-02-13T02:52:52.267Z,149550.56
2024-02-13T02:53:55.207Z,149545.48
2024-02-13T02:54:58.914Z,149528.89
2024-02-13T02:56:00.839Z,149519.97
2024-02-13T02:57:03.760Z,149505.98
2024-02-13T02:58:06.407Z,149513.64
2024-02-13T02:59:08.467Z,149528.89
2024-02-13T03:00:14.200Z,149545.48
2024-02-13T03:01:17.576Z,149545.48
2024-02-13T03:02:19.682Z,149551.83
2024-02-13T03:03:22.922Z,149540.36
2024-02-13T03:04:28.816Z,149531.45
2024-02-13T03:05:30.901Z,149540.36
2024-02-13T03:06:33.594Z,149528.89
2024-02-13T03:07:38.865Z,149535.28
2024-02-13T03:08:42.035Z,149525.11
2024-02-13T03:09:44.298Z,149530.19
2024-02-13T03:10:46.350Z,149535.28
2024-02-13T03:11:48.573Z,149546.75
2024-02-13T03:12:52.450Z,149548.00
2024-02-13T03:13:54.400Z,149553.14
2024-02-13T03:14:56.500Z,149539.09
2024-02-13T03:15:58.641Z,149509.81
2024-02-13T03:17:01.004Z,149507.25
2024-02-13T03:18:03.313Z,149503.42
2024-02-13T03:19:06.058Z,149497.03
2024-02-13T03:20:12.275Z,149470.31
2024-02-13T03:21:14.840Z,149461.41
2024-02-13T03:22:17.600Z,149455.02
2024-02-13T03:23:19.652Z,149466.48
2024-02-13T03:24:23.440Z,149469.00
2024-02-13T03:25:27.426Z,149474.13
2024-02-13T03:26:32.188Z,149472.83
2024-02-13T03:27:34.247Z,149472.83
2024-02-13T03:28:36.398Z,149433.34
2024-02-13T03:29:39.653Z,149446.11
2024-02-13T03:30:42.081Z,149463.92
2024-02-13T03:31:44.010Z,149456.28
2024-02-13T03:32:46.412Z,149461.41
2024-02-13T03:33:49.188Z,149443.55
2024-02-13T03:34:51.493Z,149433.34
2024-02-13T03:35:53.656Z,149434.64
2024-02-13T03:36:55.812Z,149446.11
2024-02-13T03:38:00.040Z,149451.19
2024-02-13T03:39:02.065Z,149460.09
2024-02-13T03:40:10.003Z,149446.11
2024-02-13T03:41:12.066Z,149461.41
2024-02-13T03:42:14.465Z,149443.55
2024-02-13T03:43:16.786Z,149447.37
2024-02-13T03:44:19.368Z,149469.00
2024-02-13T03:45:22.472Z,149455.02
2024-02-13T03:46:24.706Z,149446.11
2024-02-13T03:47:27.232Z,149444.81
2024-02-13T03:48:30.777Z,149461.41
2024-02-13T03:49:33.342Z,149448.63
2024-02-13T03:50:35.782Z,149442.28
2024-02-13T03:51:40.289Z,149430.81
2024-02-13T03:52:42.758Z,149398.97
2024-02-13T03:53:44.863Z,149409.14
2024-02-13T03:54:46.860Z,149418.09
2024-02-13T03:55:50.008Z,149420.61
2024-02-13T03:56:52.460Z,149405.31
2024-02-13T03:57:54.566Z,149416.78
2024-02-13T03:58:57.698Z,149382.44
2024-02-13T03:59:59.727Z,149382.44
2024-02-13T04:01:01.939Z,149397.67
2024-02-13T04:02:05.150Z,149377.30
2024-02-13T04:03:07.324Z,149369.66
2024-02-13T04:04:10.775Z,149377.30
2024-02-13T04:05:12.894Z,149374.78
2024-02-13T04:06:15.167Z,149358.23
2024-02-13T04:07:17.168Z,149387.50
2024-02-13T04:08:19.888Z,149387.50
2024-02-13T04:09:21.937Z,149370.95
2024-02-13T04:10:24.339Z,149374.78
2024-02-13T04:11:26.396Z,149359.50
2024-02-13T04:12:28.895Z,149349.28
2024-02-13T04:13:32.265Z,149341.64
2024-02-13T04:14:36.006Z,149344.20
2024-02-13T04:15:38.072Z,149346.77
2024-02-13T04:16:42.109Z,149346.77
2024-02-13T04:17:44.345Z,149336.56
2024-02-13T04:18:47.206Z,149331.47
2024-02-13T04:19:52.224Z,149346.77
2024-02-13T04:20:55.641Z,149331.47
2024-02-13T04:22:00.069Z,149328.91
2024-02-13T04:23:02.118Z,149325.09
2024-02-13T04:24:05.669Z,149316.19
2024-02-13T04:25:09.445Z,149318.75
2024-02-13T04:26:22.272Z,149316.19
2024-02-13T04:27:17.797Z,149309.81
2024-02-13T04:28:20.952Z,149288.19
2024-02-13T04:29:22.948Z,149307.28
2024-02-13T04:30:25.433Z,149302.16
2024-02-13T04:31:28.962Z,149322.58
2024-02-13T04:32:30.991Z,149311.11
2024-02-13T04:33:33.970Z,149307.28
2024-02-13T04:34:36.168Z,149302.16
2024-02-13T04:35:40.879Z,149317.45
2024-02-13T04:36:43.045Z,149298.39
2024-02-13T04:37:45.154Z,149302.16
2024-02-13T04:38:47.182Z,149284.36
2024-02-13T04:39:49.330Z,149300.91
2024-02-13T04:40:54.797Z,149312.38
2024-02-13T04:41:56.841Z,149290.75
2024-02-13T04:42:59.638Z,149293.27
2024-02-13T04:44:03.109Z,149305.98
2024-02-13T04:45:06.000Z,149317.45
2024-02-13T04:46:10.872Z,149298.39
2024-02-13T04:47:13.937Z,149292.00
2024-02-13T04:48:17.131Z,149298.39
2024-02-13T04:49:20.586Z,149303.47
2024-02-13T04:50:22.786Z,149299.64
2024-02-13T04:51:24.828Z,149276.72
2024-02-13T04:52:28.814Z,149285.61
2024-02-13T04:53:32.459Z,149275.45
2024-02-13T04:54:36.009Z,149279.28
2024-02-13T04:55:38.576Z,149280.53
2024-02-13T04:56:40.602Z,149272.89
2024-02-13T04:57:43.213Z,149252.53
2024-02-13T04:58:45.545Z,149265.25
2024-02-13T04:59:47.857Z,149258.91
2024-02-13T05:00:51.984Z,149257.61
2024-02-13T05:01:55.122Z,149266.56
2024-02-13T05:02:57.166Z,149255.09
2024-02-13T05:04:01.557Z,149249.97
2024-02-13T05:05:06.421Z,149255.09
2024-02-13T05:06:10.022Z,149261.42
2024-02-13T05:07:12.183Z,149260.17
2024-02-13T05:08:14.828Z,149252.53
2024-02-13T05:09:19.009Z,149275.45
2024-02-13T05:10:21.526Z,149275.45
2024-02-13T05:11:24.236Z,149270.33
2024-02-13T05:12:26.699Z,149299.64
2024-02-13T05:13:32.689Z,149271.64
2024-02-13T05:14:34.862Z,149260.17
2024-02-13T05:15:37.719Z,149257.61
2024-02-13T05:16:39.981Z,149270.33
2024-02-13T05:17:42.159Z,149271.64
2024-02-13T05:18:50.073Z,149241.06
2024-02-13T05:19:53.503Z,149227.09
2024-02-13T05:21:08.741Z,149220.70
2024-02-13T05:22:13.343Z,149216.87
2024-02-13T05:23:15.411Z,149229.59
2024-02-13T05:24:17.398Z,149221.97
2024-02-13T05:25:21.363Z,149197.78
2024-02-13T05:26:25.242Z,149211.81
2024-02-13T05:27:27.842Z,149201.59
2024-02-13T05:28:29.826Z,149201.59
2024-02-13T05:29:32.935Z,149211.81
2024-02-13T05:30:35.198Z,149227.09
2024-02-13T05:31:37.188Z,149234.69
2024-02-13T05:32:39.258Z,149232.16
2024-02-13T05:33:41.982Z,149229.59
2024-02-13T05:34:44.314Z,149227.09
2024-02-13T05:35:46.519Z,149230.91
2024-02-13T05:36:49.263Z,149237.25
2024-02-13T05:37:52.688Z,149229.59
2024-02-13T05:38:57.986Z,149219.44
2024-02-13T05:40:01.937Z,149223.27
2024-02-13T05:41:05.649Z,149199.08
2024-02-13T05:42:07.875Z,149214.31
2024-02-13T05:43:13.546Z,149224.53
2024-02-13T05:44:15.701Z,149230.91
2024-02-13T05:45:17.995Z,149238.50
2024-02-13T05:46:21.619Z,149249.97
2024-02-13T05:47:23.615Z,149232.16
2024-02-13T05:48:27.021Z,149214.31
2024-02-13T05:49:30.339Z,149229.59
2024-02-13T05:50:35.758Z,149249.97
2024-02-13T05:51:39.173Z,149249.97
2024-02-13T05:52:42.249Z,149248.70
2024-02-13T05:53:44.759Z,149262.73
2024-02-13T05:54:47.564Z,149276.72
2024-02-13T05:55:50.033Z,149252.53
2024-02-13T05:56:52.434Z,149269.06
2024-02-13T05:57:58.086Z,149286.92
2024-02-13T05:59:01.745Z,149290.75
2024-02-13T06:00:06.205Z,149277.97
2024-02-13T06:01:09.320Z,149271.64
2024-02-13T06:02:11.445Z,149320.02
2024-02-13T06:03:14.827Z,149303.47
2024-02-13T06:04:17.121Z,149302.16
2024-02-13T06:05:22.835Z,149289.44
2024-02-13T06:06:25.439Z,149293.27
2024-02-13T06:07:27.448Z,149290.75
2024-02-13T06:08:29.509Z,149280.53
2024-02-13T06:09:31.834Z,149294.56
2024-02-13T06:10:33.883Z,149266.56
2024-02-13T06:11:35.909Z,149244.89
2024-02-13T06:12:39.664Z,149206.67
2024-02-13T06:13:41.665Z,149237.25
2024-02-13T06:14:43.618Z,149252.53
2024-02-13T06:15:46.236Z,149224.53
2024-02-13T06:16:48.678Z,149249.97
2024-02-13T06:17:50.749Z,149241.06
2024-02-13T06:18:55.108Z,149239.81
2024-02-13T06:19:57.712Z,149241.06
2024-02-13T06:21:00.594Z,149229.59
2024-02-13T06:22:05.757Z,149263.98
2024-02-13T06:23:07.844Z,149272.89
2024-02-13T06:24:10.043Z,149270.33
2024-02-13T06:25:12.703Z,149285.61
2024-02-13T06:26:16.111Z,149290.75
2024-02-13T06:27:18.364Z,149288.19
2024-02-13T06:28:22.621Z,149288.19
2024-02-13T06:29:24.757Z,149299.64
2024-02-13T06:30:27.037Z,149285.61
2024-02-13T06:31:32.518Z,149281.80
2024-02-13T06:32:34.648Z,149290.75
2024-02-13T06:33:37.898Z,149308.55
2024-02-13T06:34:39.999Z,149332.73
2024-02-13T06:35:42.175Z,149331.47
2024-02-13T06:36:44.465Z,149336.56
2024-02-13T06:37:46.669Z,149364.56
2024-02-13T06:38:49.501Z,149359.50
2024-02-13T06:39:51.540Z,149374.78
2024-02-13T06:40:54.205Z,149390.08
2024-02-13T06:41:58.437Z,149384.94
2024-02-13T06:43:08.340Z,149395.16
2024-02-13T06:44:10.252Z,149386.25
2024-02-13T06:45:12.518Z,149377.30
2024-02-13T06:46:14.578Z,149356.92
2024-02-13T06:47:17.287Z,149372.22
2024-02-13T06:48:19.718Z,149376.03
2024-02-13T06:49:21.880Z,149390.08
2024-02-13T06:50:24.069Z,149410.44
2024-02-13T06:51:26.306Z,149433.34
2024-02-13T06:52:29.639Z,149438.47
2024-02-13T06:53:31.752Z,149453.75
2024-02-13T06:54:33.801Z,149423.17
2024-02-13T06:55:36.714Z,149428.25
2024-02-13T06:56:38.847Z,149439.72
2024-02-13T06:57:40.974Z,149451.19
2024-02-13T06:58:44.006Z,149432.08
2024-02-13T06:59:47.018Z,149461.41
2024-02-13T07:00:49.255Z,149483.05
2024-02-13T07:01:52.883Z,149504.69
2024-02-13T07:02:55.510Z,149541.66
2024-02-13T07:03:57.637Z,149590.08
2024-02-13T07:05:00.246Z,149583.69
2024-02-13T07:06:08.460Z,149602.81
2024-02-13T07:07:25.385Z,149625.77
2024-02-13T07:08:15.428Z,149647.42
2024-02-13T07:09:25.154Z,149678.02
2024-02-13T07:10:28.949Z,149678.02
2024-02-13T07:11:33.608Z,149676.77
2024-02-13T07:12:36.065Z,149678.02
2024-02-13T07:13:38.432Z,149479.22
2024-02-13T07:14:40.624Z,149505.98
2024-02-13T07:15:42.835Z,149562.05
2024-02-13T07:16:45.005Z,149554.39
2024-02-13T07:17:56.063Z,149495.78
2024-02-13T07:18:52.274Z,149555.66
2024-02-13T07:19:56.066Z,149591.34
2024-02-13T07:21:06.244Z,149653.81
2024-02-13T07:22:02.561Z,149688.25
2024-02-13T07:23:05.018Z,149678.02
2024-02-13T07:24:08.881Z,149694.59
2024-02-13T07:25:12.051Z,149725.25
2024-02-13T07:26:17.358Z,149741.81
2024-02-13T07:27:19.438Z,149754.56
2024-02-13T07:28:22.865Z,149769.86
2024-02-13T07:29:26.051Z,149797.91
2024-02-13T07:30:28.711Z,149795.34
2024-02-13T07:31:30.796Z,149825.97
2024-02-13T07:32:35.193Z,149851.50
2024-02-13T07:33:37.347Z,149846.38
2024-02-13T07:34:40.619Z,149857.84
2024-02-13T07:35:44.059Z,149861.69
2024-02-13T07:36:46.866Z,149864.25
2024-02-13T07:37:49.531Z,149892.31
2024-02-13T07:38:51.462Z,149887.17
2024-02-13T07:39:53.450Z,149917.80
2024-02-13T07:40:56.452Z,149934.38
2024-02-13T07:41:58.795Z,149948.44
2024-02-13T07:43:01.065Z,149973.92
2024-02-13T07:44:03.449Z,149949.69
2024-02-13T07:45:07.268Z,149961.19
2024-02-13T07:46:09.722Z,149966.27
2024-02-13T07:47:11.648Z,149967.58
2024-02-13T07:48:15.342Z,149972.67
2024-02-13T07:49:17.502Z,149980.33
2024-02-13T07:50:24.435Z,149999.47
2024-02-13T07:51:28.849Z,150014.80
2024-02-13T07:52:31.041Z,150014.80
2024-02-13T07:53:33.009Z,150027.55
2024-02-13T07:54:35.069Z,150065.80
2024-02-13T07:55:38.006Z,150044.13
2024-02-13T07:56:40.099Z,150055.62
2024-02-13T07:57:42.862Z,150074.77
2024-02-13T07:58:45.578Z,150047.95
2024-02-13T07:59:49.844Z,150119.44
2024-02-13T08:00:52.119Z,150109.20
2024-02-13T08:01:58.613Z,150120.69
2024-02-13T08:03:03.460Z,150086.22
2024-02-13T08:04:05.828Z,150104.11
2024-02-13T08:05:08.806Z,150114.34
2024-02-13T08:06:11.060Z,150118.13
2024-02-13T08:07:14.335Z,150107.94
2024-02-13T08:08:16.665Z,150019.87
2024-02-13T08:09:18.712Z,150056.88
2024-02-13T08:10:20.832Z,150058.14
2024-02-13T08:11:23.718Z,150040.30
2024-02-13T08:12:28.420Z,150024.97
2024-02-13T08:13:32.102Z,150042.88
2024-02-13T08:14:35.352Z,150014.80
2024-02-13T08:15:42.536Z,150041.56
2024-02-13T08:16:44.876Z,150041.56
2024-02-13T08:17:48.410Z,150027.55
2024-02-13T08:18:50.535Z,150037.72
2024-02-13T08:19:55.205Z,150077.30
2024-02-13T08:20:57.570Z,150068.38
2024-02-13T08:22:01.492Z,150070.94
2024-02-13T08:23:03.850Z,150035.20
2024-02-13T08:24:10.123Z,150070.94
2024-02-13T08:25:12.129Z,150058.14
2024-02-13T08:26:14.896Z,150084.95
2024-02-13T08:27:17.806Z,150107.94
2024-02-13T08:28:19.993Z,150124.53
2024-02-13T08:29:22.467Z,150110.52
2024-02-13T08:30:25.571Z,150081.13
2024-02-13T08:31:32.377Z,150083.69
2024-02-13T08:32:34.585Z,150083.69
2024-02-13T08:33:38.348Z,150127.09
2024-02-13T08:34:40.768Z,150110.52
2024-02-13T08:35:43.189Z,150096.44
2024-02-13T08:36:45.341Z,150110.52
2024-02-13T08:37:48.469Z,150162.84
2024-02-13T08:38:50.606Z,150180.69
2024-02-13T08:39:52.903Z,150208.83
2024-02-13T08:40:54.950Z,150160.27
2024-02-13T08:41:58.829Z,150129.63
2024-02-13T08:43:01.057Z,150142.42
2024-02-13T08:44:05.026Z,150118.13
2024-02-13T08:45:08.565Z,150102.84
2024-02-13T08:46:17.165Z,150081.13
2024-02-13T08:47:21.406Z,150081.13
2024-02-13T08:48:23.884Z,150088.78
2024-02-13T08:49:26.421Z,150133.44
2024-02-13T08:50:29.126Z,150185.78
2024-02-13T08:51:33.567Z,150180.69
2024-02-13T08:52:36.133Z,150152.61
2024-02-13T08:53:38.420Z,150203.72
2024-02-13T08:54:40.594Z,150221.58
2024-02-13T08:55:42.659Z,150217.75
2024-02-13T08:56:44.760Z,150238.22
2024-02-13T08:57:46.881Z,150280.33
2024-02-13T08:58:48.952Z,150266.31
2024-02-13T08:59:54.388Z,150265.00
2024-02-13T09:00:56.630Z,150254.81
2024-02-13T09:01:58.810Z,150248.41
2024-02-13T09:03:05.057Z,150259.91
2024-02-13T09:04:10.521Z,150247.14
2024-02-13T09:05:12.944Z,150280.33
2024-02-13T09:06:15.689Z,150268.83
2024-02-13T09:07:17.765Z,150261.16
2024-02-13T09:08:20.958Z,150261.16
2024-02-13T09:09:23.148Z,150295.66
2024-02-13T09:10:26.954Z,150309.73
2024-02-13T09:11:29.463Z,150323.75
2024-02-13T09:12:33.268Z,150313.52
2024-02-13T09:13:35.443Z,150308.42
2024-02-13T09:14:40.657Z,150305.91
2024-02-13T09:15:44.903Z,150285.42
2024-02-13T09:16:48.110Z,150293.09
2024-02-13T09:17:50.176Z,150311.00
2024-02-13T09:18:53.347Z,150268.83
2024-02-13T09:19:58.177Z,150285.42
2024-02-13T09:21:02.352Z,150288.00
2024-02-13T09:22:04.592Z,150302.06
2024-02-13T09:23:08.806Z,150339.09
2024-02-13T09:24:12.524Z,150342.92
2024-02-13T09:25:17.572Z,150340.34
2024-02-13T09:26:19.836Z,150376.13
2024-02-13T09:27:21.812Z,150349.28
2024-02-13T09:28:24.259Z,150341.66
2024-02-13T09:29:26.394Z,150312.25
2024-02-13T09:30:29.763Z,150288.00
2024-02-13T09:31:32.226Z,150318.66
2024-02-13T09:32:35.415Z,150321.19
2024-02-13T09:33:39.801Z,150326.33
2024-02-13T09:34:41.932Z,150321.19
2024-02-13T09:35:44.809Z,150376.13
2024-02-13T09:36:46.959Z,150379.95
2024-02-13T09:37:50.116Z,150354.42
2024-02-13T09:38:52.356Z,150368.45
2024-02-13T09:39:56.768Z,150372.28
2024-02-13T09:41:04.704Z,150401.69
2024-02-13T09:42:07.243Z,150364.62
2024-02-13T09:43:10.604Z,150405.53
2024-02-13T09:44:13.473Z,150354.42
2024-02-13T09:45:15.672Z,150346.75
2024-02-13T09:46:20.551Z,150415.72
2024-02-13T09:47:25.874Z,150418.30
2024-02-13T09:48:32.887Z,150436.16
2024-02-13T09:49:40.866Z,150466.83
2024-02-13T09:50:44.025Z,150448.92
2024-02-13T09:51:51.625Z,150482.17
2024-02-13T09:52:56.397Z,150502.63
2024-02-13T09:54:04.537Z,150529.47
2024-02-13T09:55:12.523Z,150546.06
2024-02-13T09:56:17.008Z,150465.56
2024-02-13T09:57:20.300Z,150486.02
2024-02-13T09:58:23.209Z,150459.16
2024-02-13T09:59:29.776Z,150464.27
2024-02-13T10:00:32.317Z,150459.16
2024-02-13T10:01:35.607Z,150468.09
2024-02-13T10:02:41.126Z,150488.53
2024-02-13T10:03:45.391Z,150507.72
2024-02-13T10:04:47.876Z,150555.00
2024-02-13T10:05:50.932Z,150574.19
2024-02-13T10:06:56.104Z,150539.66
2024-02-13T10:08:00.094Z,150517.95
2024-02-13T10:09:02.441Z,150529.47
2024-02-13T10:10:07.578Z,150535.83
2024-02-13T10:11:12.545Z,150535.83
2024-02-13T10:12:17.538Z,150510.28
2024-02-13T10:13:23.236Z,150494.94
2024-02-13T10:14:25.335Z,150514.13
2024-02-13T10:15:38.481Z,150491.11
2024-02-13T10:16:41.870Z,150501.34
2024-02-13T10:17:45.135Z,150460.42
2024-02-13T10:18:58.277Z,150474.50
2024-02-13T10:20:02.030Z,150487.28
2024-02-13T10:21:07.393Z,150510.28
2024-02-13T10:22:09.496Z,150507.72
2024-02-13T10:23:15.587Z,150516.64
2024-02-13T10:24:19.847Z,150489.84
2024-02-13T10:25:25.462Z,150505.19
2024-02-13T10:26:29.759Z,150493.69
2024-02-13T10:27:32.822Z,150507.72
2024-02-13T10:28:41.246Z,150512.81
2024-02-13T10:29:44.296Z,150501.34
2024-02-13T10:30:50.389Z,150473.25
2024-02-13T10:32:06.920Z,150469.41
2024-02-13T10:33:11.444Z,150471.94
2024-02-13T10:34:13.821Z,150469.41
2024-02-13T10:35:17.729Z,150457.91
2024-02-13T10:36:21.790Z,150500.03
2024-02-13T10:37:27.257Z,150505.19
2024-02-13T10:38:32.628Z,150511.55
2024-02-13T10:39:36.742Z,150556.27
2024-02-13T10:40:41.353Z,150528.16
2024-02-13T10:41:44.497Z,150511.55
2024-02-13T10:42:49.135Z,150520.48
2024-02-13T10:43:53.385Z,150558.84
2024-02-13T10:44:58.971Z,150566.52
2024-02-13T10:46:06.469Z,150505.19
2024-02-13T10:47:10.881Z,150511.55
2024-02-13T10:48:22.566Z,150480.87
2024-02-13T10:49:45.062Z,150497.52
2024-02-13T10:50:48.901Z,150494.94
2024-02-13T10:51:53.986Z,150505.19
2024-02-13T10:53:00.123Z,150505.19
2024-02-13T10:54:04.986Z,150496.20
2024-02-13T10:55:10.554Z,150496.20
2024-02-13T10:56:15.551Z,150501.34
2024-02-13T10:57:18.025Z,150478.34
2024-02-13T10:58:31.879Z,150474.50
2024-02-13T10:59:30.536Z,150441.31
2024-02-13T11:00:35.226Z,150442.56
2024-02-13T11:01:40.173Z,150460.42
2024-02-13T11:02:45.572Z,150457.91
2024-02-13T11:03:49.484Z,150418.30
2024-02-13T11:04:52.724Z,150456.59
2024-02-13T11:05:55.043Z,150464.27
2024-02-13T11:06:58.841Z,150465.56
2024-02-13T11:08:01.149Z,150454.06
2024-02-13T11:09:05.224Z,150429.80
2024-02-13T11:10:11.384Z,150459.16
2024-02-13T11:11:18.410Z,150477.03
2024-02-13T11:12:23.430Z,150502.63
2024-02-13T11:13:28.245Z,150502.63
2024-02-13T11:14:31.766Z,150496.20
2024-02-13T11:15:35.911Z,150502.63
2024-02-13T11:16:38.475Z,150535.83
2024-02-13T11:17:56.666Z,150528.16
2024-02-13T11:19:02.540Z,150516.64
2024-02-13T11:20:08.003Z,150549.91
2024-02-13T11:21:10.272Z,150523.05
2024-02-13T11:22:13.634Z,150533.30
2024-02-13T11:23:17.379Z,150535.83
2024-02-13T11:24:21.413Z,150581.84
2024-02-13T11:25:27.309Z,150578.02
2024-02-13T11:26:33.554Z,150551.16
2024-02-13T11:27:39.356Z,150571.61
2024-02-13T11:28:42.889Z,150556.27
2024-02-13T11:29:59.826Z,150586.95
2024-02-13T11:31:13.878Z,150581.84
2024-02-13T11:32:20.651Z,150533.30
2024-02-13T11:33:23.141Z,150548.59
2024-02-13T11:34:41.251Z,150543.50
2024-02-13T11:35:46.156Z,150539.66
2024-02-13T11:36:48.820Z,150548.59
2024-02-13T11:37:50.875Z,150528.16
2024-02-13T11:38:54.311Z,150533.30
2024-02-13T11:39:59.851Z,150562.67
2024-02-13T11:41:03.914Z,150549.91
2024-02-13T11:42:07.649Z,150543.50
2024-02-13T11:43:24.306Z,150558.84
2024-02-13T11:44:29.012Z,150569.08
2024-02-13T11:45:32.914Z,150510.28
2024-02-13T11:46:41.313Z,150466.83
2024-02-13T11:47:44.518Z,150461.73
2024-02-13T11:48:47.011Z,150455.33
2024-02-13T11:49:51.771Z,150451.50
2024-02-13T11:50:55.699Z,150468.09
2024-02-13T11:51:58.195Z,150493.69
2024-02-13T11:53:00.520Z,150492.38
2024-02-13T11:54:05.816Z,150452.75
2024-02-13T11:55:11.215Z,150491.11
2024-02-13T11:56:13.779Z,150484.70
2024-02-13T11:57:19.712Z,150487.28
2024-02-13T11:58:23.921Z,150465.56
2024-02-13T11:59:26.052Z,150486.02
2024-02-13T12:00:28.370Z,150468.09
2024-02-13T12:01:35.013Z,150471.94
2024-02-13T12:02:39.612Z,150461.73
2024-02-13T12:03:42.801Z,150464.27
2024-02-13T12:04:44.904Z,150461.73